KMLT

Details ICAO KMLT (MLT)
Name MILLINOCKET MUNI
Region United States
Timezone America/New_York (UTC-4.0)
Plans Departing 8
Arriving 12
Stats Elevation 408 ft / 124 m (AMSL)
Location 45.647703° -68.685736°
Runways 2
Magnetic Variation 16.413° W
Sunrise 2018-05-24 08:56:04 UTC / 2018-05-24 04:56:04 Local
Sunset 2018-05-25 00:10:00 UTC / 2018-05-24 20:10:00 Local
Advertisement - Login to hide

Runways

ID Width Length Bearing (true) Bearing (mag) Surface Threshold Offset Overrun Length
11 100 ft / 30 m 4,702 ft / 1,433 m 90.35° 106.76° Asphalt 0 ft / 0 m 0 ft / 0 m
16 150 ft / 46 m 4,003 ft / 1,220 m 139.01° 155.42° Asphalt 0 ft / 0 m 0 ft / 0 m
29 100 ft / 30 m 4,702 ft / 1,433 m 270.36° 286.77° Asphalt 0 ft / 0 m 0 ft / 0 m
34 150 ft / 46 m 4,003 ft / 1,220 m 319.02° 335.43° Asphalt 0 ft / 0 m 0 ft / 0 m

Map

Weather


0- 5 10 15 20 25 30 35+ Temperature / ° C

Clouds and Precipitation
Forecast for 2018-05-24 12:00 UTC. Updated an hour ago

Ground ~20,000 ft ~40,000 ft Winds

METAR

KMLT 241153Z AUTO 00000KT 10SM CLR 09/05 A3010 RMK AO2 SLP200 T00940050 10094 20028 51020

TAF

Not found

Frequencies

Recorded 135.22 MHz ASOS
Clearance 123.60 MHz CLNC DEL
Unicom 122.80 MHz CTAF/UNICOM
Warning: Do not use this data for real-world aviation or navigation. No guarantee of current accuracy is given.